KOAK/OAK METAR and TAF weather

Enter ICAO airport designator
Station Type Date Time Source
KOAK METAR 2020/09/20 06:53 UTC NOAA

KOAK 200653Z 04003KT 10SM FEW010 17/13 A2992 RMK AO2 SLP129 T01720133


Station Type Date Time Source
KOAK Decoded METAR 2020/09/20 06:53 UTC NOAA

METRO OAKLAND INTERNATIONAL AIRPORT , CA, United States (KOAK) 37-43N 122-14W 26M
Sep 20, 2020 - 02:53 AM EDT / 2020.09.20 0653 UTC
Wind: from the NE (040 degrees) at 3 MPH (3 KT):0
Visibility: 10 mile(s):0
Sky conditions: mostly clear
Temperature: 63.0 F (17.2 C)
Dew Point: 55.9 F (13.3 C)
Relative Humidity: 77%
Pressure (altimeter): 29.92 in. Hg (1013 hPa)
ob: KOAK 200653Z 04003KT 10SM FEW010 17/13 A2992 RMK AO2 SLP129 T01720133
cycle: 7

Station Type Date Time Source
KOAK TAF 2020/09/20 06:42 UTC NOAA

TAF KOAK 200539Z 2006/2112 29006KT P6SM SKC
FM201100 VRB04KT P6SM BKN010
FM201700 27005KT P6SM FEW010
FM202000 30011KT P6SM FEW020
FM210500 29007KT P6SM FEW008 SCT015
FM211100 28005KT P6SM BKN010

Example: see airport list